sensor_id;sensor_type;location;lat;lon;timestamp;P1;durP1;ratioP1;P2;durP2;ratioP2
60665;SDS011;59128;44.642;21.188;2022-08-01T00:02:18;3.40;;;2.53;;
60665;SDS011;59128;44.642;21.188;2022-08-01T00:04:44;3.55;;;2.40;;
60665;SDS011;59128;44.642;21.188;2022-08-01T00:07:10;3.20;;;2.50;;
60665;SDS011;59128;44.642;21.188;2022-08-01T00:09:36;5.07;;;2.78;;
60665;SDS011;59128;44.642;21.188;2022-08-01T00:12:02;4.67;;;3.00;;
60665;SDS011;59128;44.642;21.188;2022-08-01T00:14:29;3.25;;;2.83;;
60665;SDS011;59128;44.642;21.188;2022-08-01T00:16:55;4.65;;;2.88;;
60665;SDS011;59128;44.642;21.188;2022-08-01T00:19:21;6.03;;;3.47;;
60665;SDS011;59128;44.642;21.188;2022-08-01T00:21:47;3.35;;;2.80;;
60665;SDS011;59128;44.642;21.188;2022-08-01T00:24:13;4.65;;;3.30;;
60665;SDS011;59128;44.642;21.188;2022-08-01T00:26:40;4.70;;;3.10;;
60665;SDS011;59128;44.642;21.188;2022-08-01T00:29:06;4.82;;;3.40;;
60665;SDS011;59128;44.642;21.188;2022-08-01T00:31:32;4.90;;;3.17;;
60665;SDS011;59128;44.642;21.188;2022-08-01T00:33:58;3.60;;;2.88;;
60665;SDS011;59128;44.642;21.188;2022-08-01T00:36:24;5.95;;;2.85;;
60665;SDS011;59128;44.642;21.188;2022-08-01T00:38:50;5.63;;;2.63;;
60665;SDS011;59128;44.642;21.188;2022-08-01T00:41:16;3.22;;;2.70;;
60665;SDS011;59128;44.642;21.188;2022-08-01T00:43:42;4.68;;;2.90;;
60665;SDS011;59128;44.642;21.188;2022-08-01T00:46:09;3.53;;;2.70;;
60665;SDS011;59128;44.642;21.188;2022-08-01T00:48:35;3.22;;;2.50;;
60665;SDS011;59128;44.642;21.188;2022-08-01T00:51:01;4.13;;;2.50;;
60665;SDS011;59128;44.642;21.188;2022-08-01T00:53:27;5.28;;;2.90;;
60665;SDS011;59128;44.642;21.188;2022-08-01T00:55:54;3.22;;;2.92;;
60665;SDS011;59128;44.642;21.188;2022-08-01T00:58:20;3.72;;;2.60;;
60665;SDS011;59128;44.642;21.188;2022-08-01T01:00:46;3.47;;;2.50;;
60665;SDS011;59128;44.642;21.188;2022-08-01T01:03:12;4.40;;;2.85;;
60665;SDS011;59128;44.642;21.188;2022-08-01T01:08:26;3.38;;;2.63;;
60665;SDS011;59128;44.642;21.188;2022-08-01T01:10:56;4.50;;;2.72;;
60665;SDS011;59128;44.642;21.188;2022-08-01T01:13:46;3.08;;;2.58;;
60665;SDS011;59128;44.642;21.188;2022-08-01T01:16:13;4.85;;;2.72;;
60665;SDS011;59128;44.642;21.188;2022-08-01T01:18:45;3.50;;;2.80;;
60665;SDS011;59128;44.642;21.188;2022-08-01T01:23:53;3.35;;;2.70;;
60665;SDS011;59128;44.642;21.188;2022-08-01T01:26:31;2.80;;;2.35;;
60665;SDS011;59128;44.642;21.188;2022-08-01T01:31:46;4.50;;;2.90;;
60665;SDS011;59128;44.642;21.188;2022-08-01T01:34:13;3.55;;;2.65;;
60665;SDS011;59128;44.642;21.188;2022-08-01T01:36:41;3.00;;;2.45;;
60665;SDS011;59128;44.642;21.188;2022-08-01T01:39:08;4.53;;;2.70;;
60665;SDS011;59128;44.642;21.188;2022-08-01T01:41:35;3.10;;;2.80;;
60665;SDS011;59128;44.642;21.188;2022-08-01T01:44:02;4.13;;;2.80;;
60665;SDS011;59128;44.642;21.188;2022-08-01T01:46:29;4.03;;;3.20;;
60665;SDS011;59128;44.642;21.188;2022-08-01T01:48:57;5.22;;;2.90;;
60665;SDS011;59128;44.642;21.188;2022-08-01T01:51:24;4.53;;;2.85;;
60665;SDS011;59128;44.642;21.188;2022-08-01T01:53:51;3.38;;;2.80;;
60665;SDS011;59128;44.642;21.188;2022-08-01T01:56:18;3.53;;;3.15;;
60665;SDS011;59128;44.642;21.188;2022-08-01T01:58:44;4.40;;;2.80;;
60665;SDS011;59128;44.642;21.188;2022-08-01T02:01:11;4.20;;;3.00;;
60665;SDS011;59128;44.642;21.188;2022-08-01T02:03:38;4.95;;;3.13;;
60665;SDS011;59128;44.642;21.188;2022-08-01T02:06:06;4.20;;;3.00;;
60665;SDS011;59128;44.642;21.188;2022-08-01T02:08:33;3.90;;;2.80;;
60665;SDS011;59128;44.642;21.188;2022-08-01T02:11:00;3.47;;;2.80;;
60665;SDS011;59128;44.642;21.188;2022-08-01T02:13:53;3.38;;;3.00;;
60665;SDS011;59128;44.642;21.188;2022-08-01T02:16:20;4.28;;;3.22;;
60665;SDS011;59128;44.642;21.188;2022-08-01T02:18:46;3.70;;;2.83;;
60665;SDS011;59128;44.642;21.188;2022-08-01T02:21:13;4.18;;;3.00;;
60665;SDS011;59128;44.642;21.188;2022-08-01T02:23:40;4.37;;;3.00;;
60665;SDS011;59128;44.642;21.188;2022-08-01T02:26:09;4.40;;;3.33;;
60665;SDS011;59128;44.642;21.188;2022-08-01T02:28:38;4.43;;;3.20;;
60665;SDS011;59128;44.642;21.188;2022-08-01T02:31:08;3.55;;;2.78;;
60665;SDS011;59128;44.642;21.188;2022-08-01T02:33:40;4.05;;;2.90;;
60665;SDS011;59128;44.642;21.188;2022-08-01T02:36:07;3.50;;;2.90;;
60665;SDS011;59128;44.642;21.188;2022-08-01T02:38:35;3.85;;;2.70;;
60665;SDS011;59128;44.642;21.188;2022-08-01T02:41:07;3.58;;;2.60;;
60665;SDS011;59128;44.642;21.188;2022-08-01T02:43:34;3.47;;;2.80;;
60665;SDS011;59128;44.642;21.188;2022-08-01T02:46:02;3.23;;;2.93;;
60665;SDS011;59128;44.642;21.188;2022-08-01T02:48:30;3.30;;;2.80;;
60665;SDS011;59128;44.642;21.188;2022-08-01T02:50:57;4.15;;;3.00;;
60665;SDS011;59128;44.642;21.188;2022-08-01T02:53:24;4.25;;;2.80;;
60665;SDS011;59128;44.642;21.188;2022-08-01T02:55:51;5.03;;;2.83;;
60665;SDS011;59128;44.642;21.188;2022-08-01T02:58:18;5.72;;;2.70;;
60665;SDS011;59128;44.642;21.188;2022-08-01T03:00:46;3.88;;;2.88;;
60665;SDS011;59128;44.642;21.188;2022-08-01T03:03:13;4.28;;;2.90;;
60665;SDS011;59128;44.642;21.188;2022-08-01T03:05:40;3.70;;;2.87;;
60665;SDS011;59128;44.642;21.188;2022-08-01T03:08:07;3.30;;;2.67;;
60665;SDS011;59128;44.642;21.188;2022-08-01T03:10:34;3.13;;;2.80;;
60665;SDS011;59128;44.642;21.188;2022-08-01T03:13:01;3.08;;;2.60;;
60665;SDS011;59128;44.642;21.188;2022-08-01T03:15:29;4.90;;;2.83;;
60665;SDS011;59128;44.642;21.188;2022-08-01T03:17:56;2.75;;;2.50;;
60665;SDS011;59128;44.642;21.188;2022-08-01T03:20:22;5.03;;;2.70;;
60665;SDS011;59128;44.642;21.188;2022-08-01T03:22:49;4.57;;;2.85;;
60665;SDS011;59128;44.642;21.188;2022-08-01T03:25:17;6.40;;;2.80;;
60665;SDS011;59128;44.642;21.188;2022-08-01T03:27:44;3.88;;;3.05;;
60665;SDS011;59128;44.642;21.188;2022-08-01T03:30:11;4.10;;;3.30;;
60665;SDS011;59128;44.642;21.188;2022-08-01T03:32:38;3.50;;;3.00;;
60665;SDS011;59128;44.642;21.188;2022-08-01T03:35:04;4.73;;;3.17;;
60665;SDS011;59128;44.642;21.188;2022-08-01T03:37:34;5.65;;;3.28;;
60665;SDS011;59128;44.642;21.188;2022-08-01T03:42:47;5.05;;;3.47;;
60665;SDS011;59128;44.642;21.188;2022-08-01T03:45:21;4.63;;;2.90;;
60665;SDS011;59128;44.642;21.188;2022-08-01T03:47:49;6.68;;;3.50;;
60665;SDS011;59128;44.642;21.188;2022-08-01T03:50:15;3.95;;;3.03;;
60665;SDS011;59128;44.642;21.188;2022-08-01T03:52:43;4.97;;;3.47;;
60665;SDS011;59128;44.642;21.188;2022-08-01T03:55:11;5.00;;;3.45;;
60665;SDS011;59128;44.642;21.188;2022-08-01T03:57:37;5.70;;;3.20;;
60665;SDS011;59128;44.642;21.188;2022-08-01T04:00:05;4.05;;;3.30;;
60665;SDS011;59128;44.642;21.188;2022-08-01T04:02:33;4.97;;;3.20;;
60665;SDS011;59128;44.642;21.188;2022-08-01T04:05:00;5.90;;;3.40;;
60665;SDS011;59128;44.642;21.188;2022-08-01T04:07:27;3.60;;;3.30;;
60665;SDS011;59128;44.642;21.188;2022-08-01T04:09:53;5.00;;;3.20;;
60665;SDS011;59128;44.642;21.188;2022-08-01T04:12:20;5.00;;;3.20;;
60665;SDS011;59128;44.642;21.188;2022-08-01T04:14:46;5.60;;;3.22;;
60665;SDS011;59128;44.642;21.188;2022-08-01T04:17:12;4.93;;;3.60;;
60665;SDS011;59128;44.642;21.188;2022-08-01T04:19:38;5.10;;;3.63;;
60665;SDS011;59128;44.642;21.188;2022-08-01T04:22:04;4.93;;;3.50;;
60665;SDS011;59128;44.642;21.188;2022-08-01T04:24:31;5.97;;;3.25;;
60665;SDS011;59128;44.642;21.188;2022-08-01T04:26:58;5.97;;;3.60;;
60665;SDS011;59128;44.642;21.188;2022-08-01T04:29:25;5.30;;;3.60;;
60665;SDS011;59128;44.642;21.188;2022-08-01T04:31:52;5.55;;;4.10;;
60665;SDS011;59128;44.642;21.188;2022-08-01T04:34:20;6.80;;;3.53;;
60665;SDS011;59128;44.642;21.188;2022-08-01T04:36:47;5.00;;;3.70;;
60665;SDS011;59128;44.642;21.188;2022-08-01T04:39:14;5.53;;;3.78;;
60665;SDS011;59128;44.642;21.188;2022-08-01T04:41:41;5.43;;;4.07;;
60665;SDS011;59128;44.642;21.188;2022-08-01T04:44:07;7.43;;;4.23;;
60665;SDS011;59128;44.642;21.188;2022-08-01T04:46:34;6.05;;;4.07;;
60665;SDS011;59128;44.642;21.188;2022-08-01T04:49:02;5.00;;;4.00;;
60665;SDS011;59128;44.642;21.188;2022-08-01T04:51:30;5.60;;;3.60;;
60665;SDS011;59128;44.642;21.188;2022-08-01T04:53:56;6.77;;;4.10;;
60665;SDS011;59128;44.642;21.188;2022-08-01T04:56:23;8.30;;;4.40;;
60665;SDS011;59128;44.642;21.188;2022-08-01T04:58:49;7.55;;;3.95;;
60665;SDS011;59128;44.642;21.188;2022-08-01T05:01:35;6.80;;;4.00;;
60665;SDS011;59128;44.642;21.188;2022-08-01T05:04:01;6.18;;;4.20;;
60665;SDS011;59128;44.642;21.188;2022-08-01T05:06:27;5.35;;;3.50;;
60665;SDS011;59128;44.642;21.188;2022-08-01T05:08:53;6.22;;;3.20;;
60665;SDS011;59128;44.642;21.188;2022-08-01T05:11:19;5.20;;;3.50;;
60665;SDS011;59128;44.642;21.188;2022-08-01T05:13:47;4.72;;;3.70;;
60665;SDS011;59128;44.642;21.188;2022-08-01T05:16:13;5.83;;;4.57;;
60665;SDS011;59128;44.642;21.188;2022-08-01T05:18:39;6.45;;;4.07;;
60665;SDS011;59128;44.642;21.188;2022-08-01T05:21:05;6.13;;;4.00;;
60665;SDS011;59128;44.642;21.188;2022-08-01T05:23:32;5.53;;;5.03;;
60665;SDS011;59128;44.642;21.188;2022-08-01T05:25:58;4.18;;;3.60;;
60665;SDS011;59128;44.642;21.188;2022-08-01T05:28:24;4.35;;;3.50;;
60665;SDS011;59128;44.642;21.188;2022-08-01T05:30:50;5.47;;;3.53;;
60665;SDS011;59128;44.642;21.188;2022-08-01T05:33:19;4.32;;;3.70;;
60665;SDS011;59128;44.642;21.188;2022-08-01T05:35:46;4.32;;;3.42;;
60665;SDS011;59128;44.642;21.188;2022-08-01T05:38:12;4.40;;;3.15;;
60665;SDS011;59128;44.642;21.188;2022-08-01T05:40:38;3.65;;;3.30;;
60665;SDS011;59128;44.642;21.188;2022-08-01T05:43:04;4.78;;;3.63;;
60665;SDS011;59128;44.642;21.188;2022-08-01T05:45:30;4.63;;;3.30;;
60665;SDS011;59128;44.642;21.188;2022-08-01T05:47:56;5.70;;;3.40;;
60665;SDS011;59128;44.642;21.188;2022-08-01T05:50:22;3.88;;;3.17;;
60665;SDS011;59128;44.642;21.188;2022-08-01T05:52:48;5.10;;;3.15;;
60665;SDS011;59128;44.642;21.188;2022-08-01T05:55:14;4.22;;;3.08;;
60665;SDS011;59128;44.642;21.188;2022-08-01T05:57:40;4.90;;;3.10;;
60665;SDS011;59128;44.642;21.188;2022-08-01T06:00:06;4.93;;;3.20;;
60665;SDS011;59128;44.642;21.188;2022-08-01T06:02:33;2.97;;;2.33;;
60665;SDS011;59128;44.642;21.188;2022-08-01T06:04:59;3.42;;;2.35;;
60665;SDS011;59128;44.642;21.188;2022-08-01T06:07:25;2.25;;;1.88;;
60665;SDS011;59128;44.642;21.188;2022-08-01T06:09:51;3.50;;;1.80;;
60665;SDS011;59128;44.642;21.188;2022-08-01T06:12:17;2.15;;;1.60;;
60665;SDS011;59128;44.642;21.188;2022-08-01T06:14:43;3.95;;;1.70;;
60665;SDS011;59128;44.642;21.188;2022-08-01T06:17:09;1.60;;;1.50;;
60665;SDS011;59128;44.642;21.188;2022-08-01T06:19:35;1.60;;;1.50;;
60665;SDS011;59128;44.642;21.188;2022-08-01T06:22:01;1.17;;;1.02;;
60665;SDS011;59128;44.642;21.188;2022-08-01T06:24:27;2.17;;;1.50;;
60665;SDS011;59128;44.642;21.188;2022-08-01T06:26:53;2.40;;;1.50;;
60665;SDS011;59128;44.642;21.188;2022-08-01T06:29:19;3.28;;;1.70;;
60665;SDS011;59128;44.642;21.188;2022-08-01T06:31:45;1.98;;;1.42;;
60665;SDS011;59128;44.642;21.188;2022-08-01T06:34:11;1.60;;;1.20;;
60665;SDS011;59128;44.642;21.188;2022-08-01T06:36:37;2.55;;;1.33;;
60665;SDS011;59128;44.642;21.188;2022-08-01T06:39:03;3.53;;;1.60;;
60665;SDS011;59128;44.642;21.188;2022-08-01T06:41:29;1.58;;;1.23;;
60665;SDS011;59128;44.642;21.188;2022-08-01T06:43:55;1.80;;;1.40;;
60665;SDS011;59128;44.642;21.188;2022-08-01T06:46:21;3.58;;;1.40;;
60665;SDS011;59128;44.642;21.188;2022-08-01T06:48:47;2.10;;;1.25;;
60665;SDS011;59128;44.642;21.188;2022-08-01T06:51:13;1.80;;;1.30;;
60665;SDS011;59128;44.642;21.188;2022-08-01T06:53:42;1.50;;;1.25;;
60665;SDS011;59128;44.642;21.188;2022-08-01T06:56:08;1.88;;;1.77;;
60665;SDS011;59128;44.642;21.188;2022-08-01T06:58:35;1.75;;;1.52;;
60665;SDS011;59128;44.642;21.188;2022-08-01T07:01:02;2.17;;;1.30;;
60665;SDS011;59128;44.642;21.188;2022-08-01T07:03:30;2.78;;;1.45;;
60665;SDS011;59128;44.642;21.188;2022-08-01T07:05:57;2.17;;;1.48;;
60665;SDS011;59128;44.642;21.188;2022-08-01T07:08:23;4.30;;;1.65;;
60665;SDS011;59128;44.642;21.188;2022-08-01T07:10:49;5.07;;;1.60;;
60665;SDS011;59128;44.642;21.188;2022-08-01T07:13:15;1.70;;;1.30;;
60665;SDS011;59128;44.642;21.188;2022-08-01T07:15:45;2.47;;;1.40;;
60665;SDS011;59128;44.642;21.188;2022-08-01T07:18:11;4.50;;;1.42;;
60665;SDS011;59128;44.642;21.188;2022-08-01T07:20:37;2.33;;;1.30;;
60665;SDS011;59128;44.642;21.188;2022-08-01T07:23:04;2.97;;;1.40;;
60665;SDS011;59128;44.642;21.188;2022-08-01T07:25:30;3.22;;;1.63;;
60665;SDS011;59128;44.642;21.188;2022-08-01T07:27:56;5.57;;;1.92;;
60665;SDS011;59128;44.642;21.188;2022-08-01T07:30:22;14.05;;;2.15;;
60665;SDS011;59128;44.642;21.188;2022-08-01T07:32:48;41.65;;;3.80;;
60665;SDS011;59128;44.642;21.188;2022-08-01T07:35:14;10.30;;;1.75;;
60665;SDS011;59128;44.642;21.188;2022-08-01T07:37:40;4.05;;;3.53;;
60665;SDS011;59128;44.642;21.188;2022-08-01T07:40:06;3.00;;;1.33;;
60665;SDS011;59128;44.642;21.188;2022-08-01T07:42:33;1.90;;;1.23;;
60665;SDS011;59128;44.642;21.188;2022-08-01T07:44:59;2.92;;;1.80;;
60665;SDS011;59128;44.642;21.188;2022-08-01T07:47:25;2.05;;;1.88;;
60665;SDS011;59128;44.642;21.188;2022-08-01T07:49:52;4.65;;;2.30;;
60665;SDS011;59128;44.642;21.188;2022-08-01T07:52:18;3.45;;;2.58;;
60665;SDS011;59128;44.642;21.188;2022-08-01T07:54:44;45.85;;;4.63;;
60665;SDS011;59128;44.642;21.188;2022-08-01T07:57:10;13.80;;;8.23;;
60665;SDS011;59128;44.642;21.188;2022-08-01T07:59:36;13.32;;;2.97;;
60665;SDS011;59128;44.642;21.188;2022-08-01T08:02:02;16.00;;;2.58;;
60665;SDS011;59128;44.642;21.188;2022-08-01T08:04:28;23.83;;;2.80;;
60665;SDS011;59128;44.642;21.188;2022-08-01T08:06:54;16.70;;;2.30;;
60665;SDS011;59128;44.642;21.188;2022-08-01T08:09:20;9.75;;;2.17;;
60665;SDS011;59128;44.642;21.188;2022-08-01T08:11:47;10.23;;;2.03;;
60665;SDS011;59128;44.642;21.188;2022-08-01T08:14:17;3.90;;;1.90;;
60665;SDS011;59128;44.642;21.188;2022-08-01T08:16:43;2.05;;;1.95;;
60665;SDS011;59128;44.642;21.188;2022-08-01T08:19:09;17.38;;;2.60;;
60665;SDS011;59128;44.642;21.188;2022-08-01T08:24:02;11.13;;;1.92;;
60665;SDS011;59128;44.642;21.188;2022-08-01T08:26:48;7.30;;;1.95;;
60665;SDS011;59128;44.642;21.188;2022-08-01T08:29:14;2.50;;;1.65;;
60665;SDS011;59128;44.642;21.188;2022-08-01T08:31:41;2.67;;;1.80;;
60665;SDS011;59128;44.642;21.188;2022-08-01T08:34:07;4.40;;;2.03;;
60665;SDS011;59128;44.642;21.188;2022-08-01T08:36:33;6.75;;;1.60;;
60665;SDS011;59128;44.642;21.188;2022-08-01T08:39:00;3.97;;;1.55;;
60665;SDS011;59128;44.642;21.188;2022-08-01T08:41:26;2.00;;;1.50;;
60665;SDS011;59128;44.642;21.188;2022-08-01T08:43:52;3.83;;;0.90;;
60665;SDS011;59128;44.642;21.188;2022-08-01T08:46:19;3.90;;;1.02;;
60665;SDS011;59128;44.642;21.188;2022-08-01T08:48:46;2.78;;;1.08;;
60665;SDS011;59128;44.642;21.188;2022-08-01T08:51:12;2.03;;;1.05;;
60665;SDS011;59128;44.642;21.188;2022-08-01T08:53:40;1.25;;;0.85;;
60665;SDS011;59128;44.642;21.188;2022-08-01T08:56:08;1.10;;;1.00;;
60665;SDS011;59128;44.642;21.188;2022-08-01T08:58:36;1.30;;;1.20;;
60665;SDS011;59128;44.642;21.188;2022-08-01T09:01:06;1.45;;;1.00;;
60665;SDS011;59128;44.642;21.188;2022-08-01T09:03:33;2.65;;;1.20;;
60665;SDS011;59128;44.642;21.188;2022-08-01T09:06:00;5.13;;;1.65;;
60665;SDS011;59128;44.642;21.188;2022-08-01T09:08:26;1.45;;;1.35;;
60665;SDS011;59128;44.642;21.188;2022-08-01T09:10:52;1.52;;;1.23;;
60665;SDS011;59128;44.642;21.188;2022-08-01T09:13:18;1.48;;;1.20;;
60665;SDS011;59128;44.642;21.188;2022-08-01T09:15:51;3.33;;;1.08;;
60665;SDS011;59128;44.642;21.188;2022-08-01T09:18:38;4.05;;;1.38;;
60665;SDS011;59128;44.642;21.188;2022-08-01T09:26:12;2.10;;;1.25;;
60665;SDS011;59128;44.642;21.188;2022-08-01T09:28:39;2.28;;;1.25;;
60665;SDS011;59128;44.642;21.188;2022-08-01T09:31:06;1.42;;;1.30;;
60665;SDS011;59128;44.642;21.188;2022-08-01T09:36:17;1.60;;;1.17;;
60665;SDS011;59128;44.642;21.188;2022-08-01T09:38:43;1.42;;;1.02;;
60665;SDS011;59128;44.642;21.188;2022-08-01T09:41:09;1.33;;;1.15;;
60665;SDS011;59128;44.642;21.188;2022-08-01T09:43:36;1.48;;;1.08;;
60665;SDS011;59128;44.642;21.188;2022-08-01T09:46:09;2.28;;;1.63;;
60665;SDS011;59128;44.642;21.188;2022-08-01T09:48:36;2.97;;;1.55;;
60665;SDS011;59128;44.642;21.188;2022-08-01T09:51:04;1.25;;;0.90;;
60665;SDS011;59128;44.642;21.188;2022-08-01T09:53:40;2.08;;;1.00;;
60665;SDS011;59128;44.642;21.188;2022-08-01T09:56:11;1.77;;;1.35;;
60665;SDS011;59128;44.642;21.188;2022-08-01T10:01:20;1.15;;;1.00;;
60665;SDS011;59128;44.642;21.188;2022-08-01T10:03:46;1.65;;;1.17;;
60665;SDS011;59128;44.642;21.188;2022-08-01T10:06:20;2.17;;;1.13;;
60665;SDS011;59128;44.642;21.188;2022-08-01T10:08:47;1.48;;;1.20;;
60665;SDS011;59128;44.642;21.188;2022-08-01T10:11:13;1.02;;;1.00;;
60665;SDS011;59128;44.642;21.188;2022-08-01T10:13:40;1.30;;;1.20;;
60665;SDS011;59128;44.642;21.188;2022-08-01T10:16:06;1.33;;;1.00;;
60665;SDS011;59128;44.642;21.188;2022-08-01T10:18:32;3.20;;;0.90;;
60665;SDS011;59128;44.642;21.188;2022-08-01T10:21:00;1.67;;;1.17;;
60665;SDS011;59128;44.642;21.188;2022-08-01T10:23:26;1.98;;;0.95;;
60665;SDS011;59128;44.642;21.188;2022-08-01T10:25:53;1.15;;;1.02;;
60665;SDS011;59128;44.642;21.188;2022-08-01T10:28:19;1.23;;;0.93;;
60665;SDS011;59128;44.642;21.188;2022-08-01T10:30:46;0.98;;;0.82;;
60665;SDS011;59128;44.642;21.188;2022-08-01T10:33:13;0.95;;;0.80;;
60665;SDS011;59128;44.642;21.188;2022-08-01T10:35:39;2.90;;;1.20;;
60665;SDS011;59128;44.642;21.188;2022-08-01T10:38:06;3.90;;;1.45;;
60665;SDS011;59128;44.642;21.188;2022-08-01T10:40:32;0.98;;;0.90;;
60665;SDS011;59128;44.642;21.188;2022-08-01T10:42:58;1.05;;;0.95;;
60665;SDS011;59128;44.642;21.188;2022-08-01T10:45:25;1.95;;;0.90;;
60665;SDS011;59128;44.642;21.188;2022-08-01T10:48:06;1.17;;;1.00;;
60665;SDS011;59128;44.642;21.188;2022-08-01T10:50:36;2.25;;;1.02;;
60665;SDS011;59128;44.642;21.188;2022-08-01T10:53:03;1.30;;;1.20;;
60665;SDS011;59128;44.642;21.188;2022-08-01T10:55:44;2.45;;;1.25;;
60665;SDS011;59128;44.642;21.188;2022-08-01T10:58:10;2.83;;;1.02;;
60665;SDS011;59128;44.642;21.188;2022-08-01T11:00:36;2.10;;;1.10;;
60665;SDS011;59128;44.642;21.188;2022-08-01T11:03:03;3.30;;;1.55;;
60665;SDS011;59128;44.642;21.188;2022-08-01T11:05:33;1.08;;;1.00;;
60665;SDS011;59128;44.642;21.188;2022-08-01T11:08:03;1.70;;;1.10;;
60665;SDS011;59128;44.642;21.188;2022-08-01T11:10:38;1.30;;;1.13;;
60665;SDS011;59128;44.642;21.188;2022-08-01T11:13:04;1.52;;;1.40;;
60665;SDS011;59128;44.642;21.188;2022-08-01T11:15:33;1.85;;;1.10;;
60665;SDS011;59128;44.642;21.188;2022-08-01T11:18:01;1.92;;;0.88;;
60665;SDS011;59128;44.642;21.188;2022-08-01T11:20:34;1.17;;;1.08;;
60665;SDS011;59128;44.642;21.188;2022-08-01T11:30:41;1.30;;;1.00;;
60665;SDS011;59128;44.642;21.188;2022-08-01T11:33:07;1.20;;;1.10;;
60665;SDS011;59128;44.642;21.188;2022-08-01T11:35:34;1.85;;;1.20;;
60665;SDS011;59128;44.642;21.188;2022-08-01T11:40:45;1.40;;;1.00;;
60665;SDS011;59128;44.642;21.188;2022-08-01T11:45:48;3.25;;;1.10;;
60665;SDS011;59128;44.642;21.188;2022-08-01T11:48:32;2.60;;;0.90;;
60665;SDS011;59128;44.642;21.188;2022-08-01T11:53:24;1.30;;;1.20;;
60665;SDS011;59128;44.642;21.188;2022-08-01T11:55:51;1.17;;;1.02;;
60665;SDS011;59128;44.642;21.188;2022-08-01T11:58:21;2.67;;;1.20;;
60665;SDS011;59128;44.642;21.188;2022-08-01T12:00:51;1.30;;;1.20;;
60665;SDS011;59128;44.642;21.188;2022-08-01T12:03:23;1.80;;;1.10;;
60665;SDS011;59128;44.642;21.188;2022-08-01T12:05:49;2.75;;;1.42;;
60665;SDS011;59128;44.642;21.188;2022-08-01T12:08:23;2.00;;;1.13;;
60665;SDS011;59128;44.642;21.188;2022-08-01T12:10:50;3.22;;;1.08;;
60665;SDS011;59128;44.642;21.188;2022-08-01T12:13:16;3.80;;;1.10;;
60665;SDS011;59128;44.642;21.188;2022-08-01T12:15:43;1.40;;;1.08;;
60665;SDS011;59128;44.642;21.188;2022-08-01T12:18:10;1.60;;;1.10;;
60665;SDS011;59128;44.642;21.188;2022-08-01T12:20:37;3.00;;;1.08;;
60665;SDS011;59128;44.642;21.188;2022-08-01T12:23:05;1.55;;;1.23;;
60665;SDS011;59128;44.642;21.188;2022-08-01T12:25:32;1.33;;;1.23;;
60665;SDS011;59128;44.642;21.188;2022-08-01T12:27:59;3.10;;;1.10;;
60665;SDS011;59128;44.642;21.188;2022-08-01T12:30:26;1.67;;;1.08;;
60665;SDS011;59128;44.642;21.188;2022-08-01T12:32:53;1.63;;;1.07;;
60665;SDS011;59128;44.642;21.188;2022-08-01T12:35:23;3.30;;;1.38;;
60665;SDS011;59128;44.642;21.188;2022-08-01T12:40:17;1.48;;;1.20;;
60665;SDS011;59128;44.642;21.188;2022-08-01T12:42:44;3.25;;;1.20;;
60665;SDS011;59128;44.642;21.188;2022-08-01T12:45:13;1.52;;;1.10;;
60665;SDS011;59128;44.642;21.188;2022-08-01T12:47:39;2.20;;;1.17;;
60665;SDS011;59128;44.642;21.188;2022-08-01T12:50:06;1.52;;;1.17;;
60665;SDS011;59128;44.642;21.188;2022-08-01T12:52:33;1.92;;;1.20;;
60665;SDS011;59128;44.642;21.188;2022-08-01T12:55:00;1.67;;;1.10;;
60665;SDS011;59128;44.642;21.188;2022-08-01T12:57:27;2.70;;;1.13;;
60665;SDS011;59128;44.642;21.188;2022-08-01T12:59:53;1.30;;;1.20;;
60665;SDS011;59128;44.642;21.188;2022-08-01T13:02:36;2.40;;;1.30;;
60665;SDS011;59128;44.642;21.188;2022-08-01T13:05:03;1.30;;;1.20;;
60665;SDS011;59128;44.642;21.188;2022-08-01T13:07:39;2.28;;;1.30;;
60665;SDS011;59128;44.642;21.188;2022-08-01T13:10:06;3.00;;;1.42;;
60665;SDS011;59128;44.642;21.188;2022-08-01T13:12:32;2.03;;;1.27;;
60665;SDS011;59128;44.642;21.188;2022-08-01T13:14:58;2.97;;;1.30;;
60665;SDS011;59128;44.642;21.188;2022-08-01T13:17:34;1.25;;;1.10;;
60665;SDS011;59128;44.642;21.188;2022-08-01T13:20:02;1.50;;;1.02;;
60665;SDS011;59128;44.642;21.188;2022-08-01T13:22:32;1.40;;;1.10;;
60665;SDS011;59128;44.642;21.188;2022-08-01T13:25:14;2.50;;;1.45;;
60665;SDS011;59128;44.642;21.188;2022-08-01T13:27:41;2.13;;;1.40;;
60665;SDS011;59128;44.642;21.188;2022-08-01T13:30:17;2.03;;;1.20;;
60665;SDS011;59128;44.642;21.188;2022-08-01T13:32:56;2.53;;;1.33;;
60665;SDS011;59128;44.642;21.188;2022-08-01T13:35:22;1.30;;;1.20;;
60665;SDS011;59128;44.642;21.188;2022-08-01T13:37:48;1.95;;;1.30;;
60665;SDS011;59128;44.642;21.188;2022-08-01T13:40:24;2.13;;;1.30;;
60665;SDS011;59128;44.642;21.188;2022-08-01T13:42:50;1.73;;;1.27;;
60665;SDS011;59128;44.642;21.188;2022-08-01T13:45:16;1.92;;;1.30;;
60665;SDS011;59128;44.642;21.188;2022-08-01T13:47:43;1.33;;;1.13;;
60665;SDS011;59128;44.642;21.188;2022-08-01T13:50:09;3.03;;;1.30;;
60665;SDS011;59128;44.642;21.188;2022-08-01T13:52:35;1.90;;;1.33;;
60665;SDS011;59128;44.642;21.188;2022-08-01T13:55:01;1.70;;;1.33;;
60665;SDS011;59128;44.642;21.188;2022-08-01T13:57:27;2.92;;;2.05;;
60665;SDS011;59128;44.642;21.188;2022-08-01T13:59:54;2.08;;;1.33;;
60665;SDS011;59128;44.642;21.188;2022-08-01T14:02:20;1.60;;;1.30;;
60665;SDS011;59128;44.642;21.188;2022-08-01T14:04:46;2.70;;;1.40;;
60665;SDS011;59128;44.642;21.188;2022-08-01T14:07:12;3.30;;;1.33;;
60665;SDS011;59128;44.642;21.188;2022-08-01T14:09:39;3.00;;;1.13;;
60665;SDS011;59128;44.642;21.188;2022-08-01T14:12:05;2.40;;;1.30;;
60665;SDS011;59128;44.642;21.188;2022-08-01T14:14:31;1.52;;;1.42;;
60665;SDS011;59128;44.642;21.188;2022-08-01T14:16:57;2.05;;;1.30;;
60665;SDS011;59128;44.642;21.188;2022-08-01T14:19:23;2.85;;;1.23;;
60665;SDS011;59128;44.642;21.188;2022-08-01T14:21:49;2.17;;;1.30;;
60665;SDS011;59128;44.642;21.188;2022-08-01T14:24:17;2.10;;;1.33;;
60665;SDS011;59128;44.642;21.188;2022-08-01T14:26:43;1.77;;;1.57;;
60665;SDS011;59128;44.642;21.188;2022-08-01T14:29:09;1.60;;;1.13;;
60665;SDS011;59128;44.642;21.188;2022-08-01T14:31:35;4.00;;;1.40;;
60665;SDS011;59128;44.642;21.188;2022-08-01T14:34:01;3.10;;;1.30;;
60665;SDS011;59128;44.642;21.188;2022-08-01T14:36:28;2.72;;;1.33;;
60665;SDS011;59128;44.642;21.188;2022-08-01T14:38:54;1.70;;;1.20;;
60665;SDS011;59128;44.642;21.188;2022-08-01T14:41:20;2.05;;;1.45;;
60665;SDS011;59128;44.642;21.188;2022-08-01T14:43:46;2.33;;;1.33;;
60665;SDS011;59128;44.642;21.188;2022-08-01T14:46:12;2.45;;;1.50;;
60665;SDS011;59128;44.642;21.188;2022-08-01T14:48:38;1.77;;;1.30;;
60665;SDS011;59128;44.642;21.188;2022-08-01T14:51:05;2.60;;;1.27;;
60665;SDS011;59128;44.642;21.188;2022-08-01T14:53:32;1.42;;;1.10;;
60665;SDS011;59128;44.642;21.188;2022-08-01T14:56:00;1.50;;;1.40;;
60665;SDS011;59128;44.642;21.188;2022-08-01T14:58:26;2.00;;;1.00;;
60665;SDS011;59128;44.642;21.188;2022-08-01T15:00:52;4.13;;;3.30;;
60665;SDS011;59128;44.642;21.188;2022-08-01T15:03:19;3.20;;;1.10;;
60665;SDS011;59128;44.642;21.188;2022-08-01T15:05:45;2.13;;;1.50;;
60665;SDS011;59128;44.642;21.188;2022-08-01T15:08:12;1.92;;;1.20;;
60665;SDS011;59128;44.642;21.188;2022-08-01T15:10:38;2.38;;;1.30;;
60665;SDS011;59128;44.642;21.188;2022-08-01T15:13:04;1.55;;;1.40;;
60665;SDS011;59128;44.642;21.188;2022-08-01T15:15:30;2.60;;;1.42;;
60665;SDS011;59128;44.642;21.188;2022-08-01T15:17:56;2.42;;;1.35;;